Time;durP1;ratioP1;P1;durP2;ratioP2;P2;SDS_P1;SDS_P2;PMS_P1;PMS_P2;Temp;Humidity;BMP_temperature;BMP_pressure;BME280_temperature;BME280_humidity;BME280_pressure;Samples;Min_cycle;Max_cycle;Signal;HPM_P1;HPM_P2
2023/09/23 00:01:57;;;;;;;6.90;5.07;;;;;;;17.18;52.18;100124.44;5059676;28;20044;-73
2023/09/23 00:04:22;;;;;;;8.05;5.90;;;;;;;17.27;51.55;100131.69;5074595;28;20070;-74
2023/09/23 00:06:49;;;;;;;8.93;5.30;;;;;;;17.18;51.50;100141.47;5038802;28;20043;-74
2023/09/23 00:09:16;;;;;;;9.15;5.38;;;;;;;17.24;51.62;100150.84;5061782;28;20046;-72
2023/09/23 00:11:43;;;;;;;16.10;5.85;;;;;;;17.16;51.89;100116.50;5062780;28;20076;-74
2023/09/23 00:14:10;;;;;;;7.93;5.28;;;;;;;17.19;51.70;100132.38;5045155;28;20051;-75
2023/09/23 00:16:35;;;;;;;6.88;5.45;;;;;;;17.13;52.00;100126.72;5076253;28;20047;-76
2023/09/23 00:19:02;;;;;;;8.63;5.28;;;;;;;17.11;51.85;100123.31;5063329;28;20054;-76
2023/09/23 00:21:27;;;;;;;15.05;5.72;;;;;;;17.04;51.79;100126.53;5050453;28;20059;-77
2023/09/23 00:23:52;;;;;;;9.48;5.05;;;;;;;17.03;52.14;100121.31;5055180;28;20056;-72
2023/09/23 00:26:22;;;;;;;11.20;8.02;;;;;;;17.01;51.94;100123.28;5024181;28;20055;-74
2023/09/23 00:28:51;;;;;;;10.80;4.90;;;;;;;17.09;51.45;100136.06;5038987;28;20407;-73
2023/09/23 00:31:18;;;;;;;15.10;5.05;;;;;;;17.11;51.45;100134.09;5037314;28;20131;-72
2023/09/23 00:33:46;;;;;;;16.88;7.15;;;;;;;17.04;51.88;100123.03;5056632;28;20037;-71
2023/09/23 00:36:11;;;;;;;10.65;6.10;;;;;;;16.95;52.02;100140.84;5037824;28;20059;-75
2023/09/23 00:38:37;;;;;;;12.63;5.63;;;;;;;17.00;51.96;100117.06;5065181;28;20055;-73
2023/09/23 00:41:04;;;;;;;12.68;6.82;;;;;;;17.04;51.58;100118.47;5059525;28;20051;-74
2023/09/23 00:43:33;;;;;;;7.60;5.65;;;;;;;16.92;52.31;100119.59;5061664;28;20044;-75
2023/09/23 00:45:59;;;;;;;10.85;5.93;;;;;;;16.85;52.63;100113.03;5057279;28;20040;-71
2023/09/23 00:48:25;;;;;;;11.25;5.50;;;;;;;16.81;52.56;100122.41;5056464;28;20052;-73
2023/09/23 00:50:53;;;;;;;9.32;5.40;;;;;;;16.94;51.96;100119.44;5055788;28;20525;-71
2023/09/23 00:53:22;;;;;;;10.20;5.90;;;;;;;16.96;52.20;100115.63;5056616;28;20044;-71
2023/09/23 00:55:57;;;;;;;13.63;6.97;;;;;;;16.86;52.20;100135.44;5057883;28;20035;-73
2023/09/23 00:58:24;;;;;;;9.75;5.07;;;;;;;16.89;52.14;100111.78;5039347;28;20052;-73
2023/09/23 01:00:51;;;;;;;10.93;5.93;;;;;;;16.99;51.74;100127.97;5073446;28;20058;-72
2023/09/23 01:03:19;;;;;;;9.93;5.63;;;;;;;16.90;51.99;100126.09;5036506;28;20399;-73
2023/09/23 01:05:46;;;;;;;13.80;6.22;;;;;;;16.87;51.92;100121.00;5038752;28;20422;-72
2023/09/23 01:08:22;;;;;;;10.70;5.53;;;;;;;16.94;51.86;100119.44;5058267;28;20028;-72
2023/09/23 01:10:48;;;;;;;9.77;5.88;;;;;;;16.92;52.10;100135.75;5021637;28;20054;-71
2023/09/23 01:13:14;;;;;;;9.63;6.90;;;;;;;16.92;51.69;100113.34;5056619;28;20031;-70
2023/09/23 01:15:40;;;;;;;10.40;6.05;;;;;;;16.84;51.88;100111.34;5056749;28;20379;-71
2023/09/23 01:18:18;;;;;;;19.38;6.82;;;;;;;16.80;52.26;100103.69;5055434;28;20053;-71
2023/09/23 01:20:50;;;;;;;8.27;5.28;;;;;;;16.78;52.34;100116.44;5052119;28;20039;-72
2023/09/23 01:23:16;;;;;;;12.80;5.90;;;;;;;16.70;52.55;100120.66;5040127;28;20044;-70
2023/09/23 01:25:42;;;;;;;12.75;6.65;;;;;;;16.68;52.56;100144.19;5075078;28;20039;-71
2023/09/23 01:28:14;;;;;;;7.75;5.05;;;;;;;16.78;52.37;100117.28;5076306;28;20047;-72
2023/09/23 01:30:41;;;;;;;10.13;7.40;;;;;;;16.79;52.32;100119.00;5057854;28;20532;-72
2023/09/23 01:33:12;;;;;;;11.05;5.82;;;;;;;16.78;52.04;100117.28;5057720;28;20043;-72
2023/09/23 01:35:38;;;;;;;11.23;6.05;;;;;;;16.75;52.13;100149.88;5037735;28;20048;-71
2023/09/23 01:38:03;;;;;;;10.15;5.35;;;;;;;16.63;52.85;100119.50;5055648;28;20048;-71
2023/09/23 01:40:31;;;;;;;8.82;5.40;;;;;;;16.60;52.75;100108.09;5054384;28;20048;-70
2023/09/23 01:42:58;;;;;;;9.18;5.80;;;;;;;16.51;53.07;100115.16;5067565;28;20031;-69
2023/09/23 01:45:26;;;;;;;10.90;6.10;;;;;;;16.56;52.76;100144.38;5075337;28;20822;-68
2023/09/23 01:47:55;;;;;;;17.85;6.35;;;;;;;16.59;53.04;100131.47;5056296;28;20393;-69
2023/09/23 01:50:21;;;;;;;7.95;5.45;;;;;;;16.56;52.65;100123.69;5057328;28;20043;-71
2023/09/23 01:52:47;;;;;;;12.65;6.25;;;;;;;16.46;53.39;100117.44;5074383;28;20050;-68
2023/09/23 01:55:14;;;;;;;18.10;6.40;;;;;;;16.45;53.42;100113.03;5055311;28;20048;-69
2023/09/23 01:57:40;;;;;;;11.88;6.22;;;;;;;16.39;53.69;100121.63;5040430;28;20050;-69
2023/09/23 02:00:07;;;;;;;8.65;5.70;;;;;;;16.33;53.72;100133.81;5075025;28;20047;-68
2023/09/23 02:02:38;;;;;;;10.82;6.20;;;;;;;16.24;54.15;100123.00;5074896;28;20038;-68
2023/09/23 02:05:05;;;;;;;10.45;5.95;;;;;;;16.34;53.61;100103.22;5073852;28;20039;-69
2023/09/23 02:07:30;;;;;;;14.05;6.32;;;;;;;16.29;53.71;100121.59;5040165;28;20043;-68
2023/09/23 02:09:56;;;;;;;10.20;6.07;;;;;;;16.27;54.05;100120.03;5056841;28;20502;-69
2023/09/23 02:12:23;;;;;;;7.90;5.35;;;;;;;16.21;54.16;100120.56;5039142;28;20048;-70
2023/09/23 02:14:48;;;;;;;9.77;6.38;;;;;;;16.18;54.45;100145.03;5057017;28;20046;-69
2023/09/23 02:17:15;;;;;;;9.00;5.65;;;;;;;16.21;54.44;100123.25;5073712;28;20441;-69
2023/09/23 02:19:40;;;;;;;11.48;5.82;;;;;;;16.31;53.94;100124.16;5044625;28;20077;-69
2023/09/23 02:22:06;;;;;;;9.50;5.75;;;;;;;16.28;53.84;100129.78;5048884;28;20056;-67
2023/09/23 02:24:33;;;;;;;15.55;5.95;;;;;;;16.21;54.33;100137.56;5051324;28;20048;-68
2023/09/23 02:26:59;;;;;;;8.77;5.93;;;;;;;16.19;54.22;100130.59;5074639;28;20039;-68
2023/09/23 02:29:24;;;;;;;9.48;5.57;;;;;;;16.20;54.61;100124.25;5041329;28;20047;-69
2023/09/23 02:31:50;;;;;;;11.30;6.05;;;;;;;16.12;54.63;100121.38;5082382;28;20043;-68
2023/09/23 02:34:17;;;;;;;10.85;6.20;;;;;;;16.17;54.45;100137.94;5081851;28;20063;-68
2023/09/23 02:36:45;;;;;;;10.95;5.43;;;;;;;16.17;54.37;100133.41;5065491;28;20075;-70
2023/09/23 02:39:19;;;;;;;12.68;5.70;;;;;;;16.15;54.76;100130.00;5039584;28;20044;-69
2023/09/23 02:41:45;;;;;;;10.77;5.57;;;;;;;16.12;54.35;100142.91;5046746;28;20417;-71
2023/09/23 02:44:18;;;;;;;11.13;5.45;;;;;;;16.14;54.65;100147.13;5058865;28;20141;-71
2023/09/23 02:46:45;;;;;;;9.50;5.32;;;;;;;16.12;54.33;100130.31;5057839;28;20110;-70
2023/09/23 02:49:13;;;;;;;11.85;5.60;;;;;;;16.08;54.64;100134.22;5022907;28;20100;-71
2023/09/23 02:51:41;;;;;;;15.95;5.93;;;;;;;16.05;54.70;100134.47;5057976;28;20062;-71
2023/09/23 02:54:08;;;;;;;11.52;6.10;;;;;;;16.02;54.74;100140.16;5056700;28;20048;-71
2023/09/23 02:56:34;;;;;;;8.68;5.82;;;;;;;16.05;54.84;100133.63;5055768;28;20129;-69
2023/09/23 02:59:00;;;;;;;10.02;5.90;;;;;;;16.04;54.67;100137.31;5039056;28;20070;-68
2023/09/23 03:01:27;;;;;;;11.25;5.50;;;;;;;16.04;54.84;100131.91;5057035;28;20051;-68
2023/09/23 03:03:52;;;;;;;7.80;5.90;;;;;;;15.90;54.99;100142.06;5056719;28;20089;-69
2023/09/23 03:06:18;;;;;;;15.43;6.15;;;;;;;15.91;55.12;100132.97;5073899;28;20051;-69
2023/09/23 03:08:47;;;;;;;11.23;5.85;;;;;;;15.90;55.34;100130.44;5056086;28;20035;-71
2023/09/23 03:11:18;;;;;;;10.07;5.95;;;;;;;15.94;55.25;100137.25;5056413;28;20043;-72
2023/09/23 03:13:44;;;;;;;13.27;6.70;;;;;;;15.89;55.33;100126.06;5056807;28;20040;-73
2023/09/23 03:16:14;;;;;;;12.23;6.07;;;;;;;15.88;55.48;100138.63;5057726;28;20421;-71
2023/09/23 03:18:54;;;;;;;9.93;6.10;;;;;;;15.94;55.34;100137.25;5043374;28;20051;-74
2023/09/23 03:21:20;;;;;;;9.70;5.95;;;;;;;15.95;55.10;100133.56;5043960;28;20047;-72
2023/09/23 03:23:46;;;;;;;11.35;6.13;;;;;;;15.84;55.79;100139.88;5040366;28;20040;-74
2023/09/23 03:26:11;;;;;;;15.63;5.93;;;;;;;15.85;55.38;100140.72;5039060;28;20062;-73
2023/09/23 03:28:41;;;;;;;10.35;6.35;;;;;;;15.86;55.75;100161.25;5076380;28;20043;-72
2023/09/23 03:31:09;;;;;;;10.15;5.85;;;;;;;15.83;55.60;100159.66;5043377;28;20043;-75
2023/09/23 03:33:37;;;;;;;9.55;6.25;;;;;;;15.78;56.00;100137.72;5040100;28;20051;-73
2023/09/23 03:36:08;;;;;;;9.63;6.30;;;;;;;15.78;56.06;100159.22;5040070;28;20051;-73
2023/09/23 03:38:33;;;;;;;10.82;6.95;;;;;;;15.84;55.86;100147.09;5059470;28;20039;-72
2023/09/23 03:41:02;;;;;;;13.13;6.72;;;;;;;15.86;55.64;100158.56;5059947;28;20042;-73
2023/09/23 03:43:29;;;;;;;12.95;6.53;;;;;;;15.94;55.59;100143.47;5060114;28;20040;-73
2023/09/23 03:45:55;;;;;;;12.45;7.00;;;;;;;15.97;55.32;100153.13;5042628;28;20063;-73
2023/09/23 03:48:21;;;;;;;9.95;6.53;;;;;;;16.01;55.29;100154.56;5076152;28;20417;-73
2023/09/23 03:50:53;;;;;;;15.07;6.93;;;;;;;16.06;55.34;100146.09;5076012;28;20047;-73
2023/09/23 03:53:22;;;;;;;10.82;6.88;;;;;;;16.14;54.81;100160.59;5059117;28;20047;-72
2023/09/23 03:55:49;;;;;;;9.23;6.22;;;;;;;16.17;54.75;100160.31;5060069;28;20039;-73
2023/09/23 03:58:17;;;;;;;11.45;6.90;;;;;;;16.14;54.73;100160.59;5042722;28;20051;-73
2023/09/23 04:00:43;;;;;;;11.60;6.47;;;;;;;16.24;54.43;100164.22;5059879;28;20040;-73
2023/09/23 04:03:09;;;;;;;9.50;6.78;;;;;;;16.31;54.29;100162.69;5042888;28;20827;-74
2023/09/23 04:05:34;;;;;;;12.70;7.57;;;;;;;16.32;54.51;100168.91;5025871;28;20398;-75
2023/09/23 04:07:59;;;;;;;12.43;7.15;;;;;;;16.36;54.20;100173.06;5059548;28;20040;-73
2023/09/23 04:10:24;;;;;;;15.77;6.65;;;;;;;16.42;54.11;100163.56;5075718;28;20062;-72
2023/09/23 04:12:54;;;;;;;12.63;7.40;;;;;;;16.51;53.66;100162.75;5058800;28;20510;-73
2023/09/23 04:15:24;;;;;;;11.27;6.43;;;;;;;16.62;53.71;100192.31;5042388;28;20133;-72
2023/09/23 04:17:49;;;;;;;8.75;6.57;;;;;;;16.73;53.47;100162.59;5078217;28;20047;-72
2023/09/23 04:20:14;;;;;;;8.75;6.10;;;;;;;16.80;53.10;100179.94;5059408;28;20043;-73
2023/09/23 04:22:41;;;;;;;12.32;7.78;;;;;;;16.79;53.04;100167.47;5059009;28;20055;-74
2023/09/23 04:25:10;;;;;;;10.95;6.00;;;;;;;16.84;53.15;100175.97;5077273;28;20051;-74
2023/09/23 04:27:37;;;;;;;13.20;6.93;;;;;;;16.89;52.78;100181.81;5042117;28;20043;-74
2023/09/23 04:30:06;;;;;;;8.70;5.85;;;;;;;16.87;52.81;100177.53;5070144;28;20047;-73
2023/09/23 04:32:32;;;;;;;15.02;6.68;;;;;;;16.93;52.53;100160.84;5057196;28;20043;-73
2023/09/23 04:34:57;;;;;;;12.32;6.97;;;;;;;16.96;52.63;100174.88;5057176;28;20039;-73
2023/09/23 04:37:27;;;;;;;9.52;6.25;;;;;;;16.99;52.57;100177.31;5057780;28;20040;-72
2023/09/23 04:39:53;;;;;;;11.68;7.03;;;;;;;17.06;52.67;100180.28;5055894;28;20048;-71
2023/09/23 04:42:18;;;;;;;26.77;6.78;;;;;;;17.18;52.15;100179.19;5055633;28;20062;-76
2023/09/23 04:44:44;;;;;;;11.50;6.88;;;;;;;17.32;51.69;100196.81;5039139;28;20413;-71
2023/09/23 04:47:09;;;;;;;13.32;5.93;;;;;;;17.46;51.23;100176.69;5068192;28;20039;-72
2023/09/23 04:49:34;;;;;;;13.98;7.00;;;;;;;17.47;51.31;100183.78;5041917;28;20055;-71
2023/09/23 04:51:59;;;;;;;7.40;6.38;;;;;;;17.57;51.48;100185.50;5077132;28;20117;-70
2023/09/23 04:54:24;;;;;;;11.40;6.85;;;;;;;17.62;51.11;100198.53;5059252;28;20047;-71
2023/09/23 04:56:50;;;;;;;9.30;6.00;;;;;;;17.80;50.89;100183.41;5075135;28;20048;-72
2023/09/23 04:59:15;;;;;;;13.55;6.65;;;;;;;17.95;50.47;100200.84;5041273;28;20418;-75
2023/09/23 05:01:40;;;;;;;14.13;6.63;;;;;;;18.05;49.92;100206.25;5059051;28;20047;-72
2023/09/23 05:04:07;;;;;;;13.82;7.55;;;;;;;18.17;49.94;100171.84;5076789;28;20043;-73
2023/09/23 05:06:32;;;;;;;11.38;6.13;;;;;;;18.30;49.28;100200.22;5059559;28;20070;-73
2023/09/23 05:08:58;;;;;;;16.98;7.32;;;;;;;18.44;49.05;100190.81;5042313;28;20044;-73
2023/09/23 05:11:24;;;;;;;12.90;6.80;;;;;;;18.58;48.87;100192.22;5058708;28;20141;-74
2023/09/23 05:13:50;;;;;;;12.60;6.55;;;;;;;18.67;48.20;100186.78;5058449;28;20051;-73
2023/09/23 05:16:16;;;;;;;13.50;6.10;;;;;;;18.99;47.66;100180.94;5058508;28;20046;-72
2023/09/23 05:18:41;;;;;;;7.90;6.07;;;;;;;19.03;47.25;100195.88;5076416;28;20117;-73
2023/09/23 05:21:09;;;;;;;12.13;6.38;;;;;;;18.91;47.60;100177.31;5076837;28;20068;-72
2023/09/23 05:23:35;;;;;;;12.27;6.88;;;;;;;18.99;47.46;100194.47;5076412;28;20527;-72
2023/09/23 05:26:00;;;;;;;8.43;6.35;;;;;;;19.14;46.94;100192.13;5076021;28;20792;-72
2023/09/23 05:28:26;;;;;;;14.55;6.50;;;;;;;19.38;46.71;100186.13;5074676;28;20058;-71
2023/09/23 05:30:53;;;;;;;8.50;5.75;;;;;;;19.62;46.04;100194.53;5074467;28;20047;-72
2023/09/23 05:33:19;;;;;;;13.10;6.10;;;;;;;20.09;45.07;100186.97;5076346;28;20044;-72
2023/09/23 05:35:44;;;;;;;12.10;6.63;;;;;;;20.46;43.96;100221.13;5058035;28;20047;-73
2023/09/23 05:38:09;;;;;;;15.18;6.22;;;;;;;21.06;43.32;100186.75;5058574;28;20043;-73
2023/09/23 05:40:36;;;;;;;12.48;6.60;;;;;;;21.56;41.62;100191.31;5023650;28;20048;-74
2023/09/23 05:43:03;;;;;;;12.23;6.50;;;;;;;22.38;40.29;100201.22;5076178;28;20525;-73
2023/09/23 05:45:29;;;;;;;9.70;6.10;;;;;;;23.31;39.07;100176.97;5077303;28;20391;-72
2023/09/23 05:47:55;;;;;;;12.40;6.95;;;;;;;23.90;37.27;100189.03;5078470;28;20434;-73
2023/09/23 05:50:21;;;;;;;11.38;6.32;;;;;;;24.40;36.31;100112.13;5075855;28;20046;-75
2023/09/23 05:52:47;;;;;;;10.52;6.18;;;;;;;24.99;35.30;100177.59;5076955;28;20047;-73
2023/09/23 05:55:13;;;;;;;11.02;6.35;;;;;;;25.51;34.49;100199.22;5058777;28;20027;-73
2023/09/23 05:57:40;;;;;;;11.30;6.38;;;;;;;25.86;33.89;100183.03;5076785;28;20050;-73
2023/09/23 06:00:12;;;;;;;10.98;6.10;;;;;;;25.95;33.65;100187.34;5071748;28;20043;-72
2023/09/23 06:02:38;;;;;;;11.57;6.30;;;;;;;25.45;33.09;100191.81;5069019;28;20047;-76
2023/09/23 06:05:03;;;;;;;10.13;6.40;;;;;;;25.03;33.87;100184.38;5075795;28;20047;-75
2023/09/23 06:07:31;;;;;;;17.20;6.80;;;;;;;25.11;34.23;100186.16;5076563;28;20047;-73
2023/09/23 06:09:58;;;;;;;12.00;6.40;;;;;;;25.15;34.29;100207.41;5074458;28;20062;-74
2023/09/23 06:12:31;;;;;;;13.93;6.10;;;;;;;25.47;34.55;100189.75;5076556;28;20129;-74
2023/09/23 06:14:58;;;;;;;13.37;5.70;;;;;;;25.53;33.39;100161.66;5076835;28;20046;-74
2023/09/23 06:17:25;;;;;;;11.88;6.50;;;;;;;25.83;32.82;100178.81;5058475;28;20063;-75
2023/09/23 06:19:51;;;;;;;7.88;5.80;;;;;;;26.67;32.49;100189.84;5058546;28;20530;-76
2023/09/23 06:22:17;;;;;;;16.58;6.18;;;;;;;28.02;30.73;100182.59;5076920;28;20510;-76
2023/09/23 06:24:43;;;;;;;17.92;6.35;;;;;;;28.98;28.77;100183.00;5040720;28;20406;-72
2023/09/23 06:27:08;;;;;;;13.27;7.15;;;;;;;29.41;27.65;100185.19;5053539;28;20039;-71
2023/09/23 06:29:33;;;;;;;12.50;5.60;;;;;;;29.75;27.27;100184.78;5068290;28;20051;-71
2023/09/23 06:31:59;;;;;;;17.17;6.78;;;;;;;30.20;26.62;100182.78;5058881;28;20051;-75
2023/09/23 06:34:24;;;;;;;12.60;6.30;;;;;;;30.77;26.37;100183.53;5077768;28;20498;-74
2023/09/23 06:36:49;;;;;;;12.20;6.05;;;;;;;31.39;25.64;100170.53;5060594;28;20040;-74
2023/09/23 06:39:14;;;;;;;12.75;6.90;;;;;;;32.20;24.53;100182.97;5076519;28;20043;-75
2023/09/23 06:41:39;;;;;;;13.80;6.18;;;;;;;32.17;24.35;100184.25;5077574;28;20058;-75
2023/09/23 06:44:07;;;;;;;11.07;6.25;;;;;;;32.08;24.67;100178.22;5081922;28;20043;-75
2023/09/23 06:46:32;;;;;;;15.70;6.82;;;;;;;31.30;24.93;100177.44;5082533;28;20054;-73
2023/09/23 06:48:57;;;;;;;9.63;6.03;;;;;;;31.79;24.68;100173.63;5080680;28;20418;-77
2023/09/23 06:51:22;;;;;;;9.20;5.93;;;;;;;32.24;24.14;100173.97;5048846;28;20043;-77
2023/09/23 06:53:47;;;;;;;12.60;6.13;;;;;;;32.93;23.87;100172.31;5033192;28;20063;-77
2023/09/23 06:56:13;;;;;;;9.05;5.80;;;;;;;33.66;23.14;100181.84;5086431;28;20043;-77
2023/09/23 06:58:38;;;;;;;16.00;6.65;;;;;;;33.91;22.34;100173.22;5083715;28;20428;-77
2023/09/23 07:01:03;;;;;;;9.70;6.45;;;;;;;34.42;22.27;100186.88;5065927;28;20051;-77
2023/09/23 07:03:28;;;;;;;12.05;7.10;;;;;;;34.81;21.96;100201.59;5065879;28;20055;-77
2023/09/23 07:05:53;;;;;;;8.07;6.38;;;;;;;35.04;21.80;100172.00;5083183;28;20415;-77
2023/09/23 07:08:19;;;;;;;10.50;5.90;;;;;;;35.27;21.17;100177.31;5065502;28;20039;-78
2023/09/23 07:10:44;;;;;;;7.82;6.05;;;;;;;35.71;20.77;100172.53;5064867;28;20039;-75
2023/09/23 07:13:09;;;;;;;11.18;7.03;;;;;;;35.50;20.70;100168.72;5084085;28;20038;-75
2023/09/23 07:15:36;;;;;;;10.75;6.25;;;;;;;35.98;20.21;100175.34;5081089;28;20048;-76
2023/09/23 07:18:02;;;;;;;8.27;5.90;;;;;;;35.95;20.55;100170.31;5081740;28;20050;-76
2023/09/23 07:20:27;;;;;;;9.25;6.55;;;;;;;35.44;20.15;100166.97;5065664;28;20062;-74
2023/09/23 07:22:53;;;;;;;12.30;6.63;;;;;;;35.04;20.72;100174.75;5063777;28;20043;-74
2023/09/23 07:25:18;;;;;;;15.75;6.88;;;;;;;34.66;21.11;100168.09;5079638;28;20631;-77
2023/09/23 07:27:44;;;;;;;10.57;6.38;;;;;;;35.04;21.55;100194.16;5083222;28;20050;-74
2023/09/23 07:30:10;;;;;;;9.93;6.85;;;;;;;35.54;20.92;100188.47;5082080;28;20043;-76
2023/09/23 07:32:35;;;;;;;13.77;7.90;;;;;;;36.60;19.96;100186.69;5063563;28;20050;-75
2023/09/23 07:35:00;;;;;;;11.63;6.80;;;;;;;36.41;20.02;100170.72;5048195;28;20044;-76
2023/09/23 07:37:26;;;;;;;14.65;8.23;;;;;;;36.52;19.79;100169.69;5082541;28;20047;-74
2023/09/23 07:39:51;;;;;;;9.02;6.30;;;;;;;36.73;19.70;100154.88;5049653;28;20051;-76
2023/09/23 07:42:16;;;;;;;10.95;7.05;;;;;;;37.39;18.96;100169.94;5064272;28;20047;-79
2023/09/23 07:44:41;;;;;;;8.40;6.22;;;;;;;37.79;18.65;100166.44;5082505;28;20050;-76
2023/09/23 07:47:07;;;;;;;8.07;6.20;;;;;;;38.24;18.44;100189.91;5046358;28;20057;-78
2023/09/23 07:49:34;;;;;;;10.00;6.45;;;;;;;37.65;18.69;100183.94;5062914;28;20048;-77
2023/09/23 07:51:59;;;;;;;8.80;6.65;;;;;;;38.19;18.49;100175.97;5043298;28;20040;-76
2023/09/23 07:54:24;;;;;;;11.35;6.72;;;;;;;38.76;18.02;100186.81;5043152;28;20513;-74
2023/09/23 07:56:50;;;;;;;10.60;6.53;;;;;;;39.03;17.70;100172.53;5042584;28;20046;-75
2023/09/23 07:59:15;;;;;;;13.82;7.30;;;;;;;39.17;17.52;100165.22;5071570;28;20048;-75
2023/09/23 08:01:40;;;;;;;9.63;7.68;;;;;;;39.00;17.49;100173.09;5061764;28;20044;-73
2023/09/23 08:04:05;;;;;;;12.05;7.88;;;;;;;39.26;17.73;100162.69;5087223;28;20031;-76
2023/09/23 08:06:31;;;;;;;13.88;7.55;;;;;;;39.97;16.97;100169.81;5044578;28;20532;-75
2023/09/23 08:08:56;;;;;;;22.10;9.27;;;;;;;40.62;16.60;100160.06;5079732;28;20058;-74
2023/09/23 08:11:21;;;;;;;17.45;9.10;;;;;;;41.63;16.09;100175.66;5088183;28;20039;-75
2023/09/23 08:13:46;;;;;;;12.60;8.70;;;;;;;42.11;15.78;100166.25;5088883;28;20058;-75
2023/09/23 08:16:12;;;;;;;14.02;8.05;;;;;;;42.07;15.31;100157.66;5089759;28;20242;-73
2023/09/23 08:18:37;;;;;;;10.38;7.57;;;;;;;42.29;15.17;100185.84;5093774;28;20052;-75
2023/09/23 08:21:02;;;;;;;23.15;9.43;;;;;;;41.93;15.17;100176.31;5066667;28;20055;-76
2023/09/23 08:23:27;;;;;;;9.18;7.90;;;;;;;41.66;14.88;100168.59;5087224;28;20052;-75
2023/09/23 08:25:54;;;;;;;9.27;7.22;;;;;;;40.52;15.77;100166.56;5079826;28;20075;-74
2023/09/23 08:28:20;;;;;;;13.85;8.15;;;;;;;40.71;16.29;100165.88;5081027;28;20043;-82
2023/09/23 08:30:46;;;;;;;9.88;7.63;;;;;;;42.16;15.44;100163.38;5077052;28;20403;-74
2023/09/23 08:33:12;;;;;;;9.20;7.47;;;;;;;43.65;14.44;100139.41;5060022;28;20047;-76
2023/09/23 08:35:38;;;;;;;11.77;8.60;;;;;;;44.29;13.63;100139.22;5061467;28;20035;-74
2023/09/23 08:38:03;;;;;;;8.88;7.97;;;;;;;44.88;13.35;100137.94;5080061;28;20051;-75
2023/09/23 08:40:34;;;;;;;14.85;9.13;;;;;;;44.51;13.36;100156.09;5079612;28;20036;-75
2023/09/23 08:43:04;;;;;;;10.35;8.88;;;;;;;44.22;13.60;100152.94;5040096;28;20059;-75
2023/09/23 08:45:30;;;;;;;10.40;8.50;;;;;;;43.18;13.71;100168.78;5044512;28;20055;-75
2023/09/23 08:47:57;;;;;;;9.43;8.40;;;;;;;43.35;13.55;100135.28;5081046;28;20051;-75
2023/09/23 08:50:24;;;;;;;13.57;8.20;;;;;;;43.43;13.57;100137.38;5082487;28;20050;-75
2023/09/23 08:52:50;;;;;;;10.02;8.52;;;;;;;42.96;13.71;100152.66;5062965;28;20055;-74
2023/09/23 08:55:17;;;;;;;9.75;8.70;;;;;;;42.01;14.19;100108.44;5065215;28;20036;-74
2023/09/23 08:57:42;;;;;;;10.00;7.55;;;;;;;41.65;14.18;100125.78;5065196;28;20509;-76
2023/09/23 09:00:10;;;;;;;8.73;7.53;;;;;;;40.81;14.85;100127.44;5059178;28;20427;-74
2023/09/23 09:02:35;;;;;;;7.80;6.35;;;;;;;40.86;15.16;100120.97;5077932;28;20047;-76
2023/09/23 09:05:00;;;;;;;9.90;6.72;;;;;;;40.40;14.98;100121.44;5059799;28;20035;-76
2023/09/23 09:07:33;;;;;;;7.30;6.68;;;;;;;39.93;15.38;100122.13;5077204;28;20048;-75
2023/09/23 09:09:58;;;;;;;8.45;7.00;;;;;;;38.96;15.69;100112.56;5041213;28;20050;-73
2023/09/23 09:12:23;;;;;;;7.47;6.22;;;;;;;38.39;16.44;100123.03;5076704;28;20047;-77
2023/09/23 09:14:52;;;;;;;8.50;5.75;;;;;;;38.60;16.35;100129.44;5076769;28;20040;-75
2023/09/23 09:17:20;;;;;;;7.78;5.93;;;;;;;38.91;16.44;100127.38;5076922;28;20051;-75
2023/09/23 09:19:45;;;;;;;8.40;6.50;;;;;;;39.29;15.93;100117.47;5075085;28;20051;-73
2023/09/23 09:22:11;;;;;;;7.75;6.40;;;;;;;39.39;15.83;100106.25;5074443;28;20051;-75
2023/09/23 09:24:36;;;;;;;9.95;6.78;;;;;;;37.53;17.00;100117.41;5077645;28;20046;-74
2023/09/23 09:27:01;;;;;;;10.05;5.85;;;;;;;37.36;17.25;100109.28;5080133;28;20064;-76
2023/09/23 09:29:29;;;;;;;9.52;6.82;;;;;;;37.52;16.84;100126.84;5078656;28;20055;-73
2023/09/23 09:32:00;;;;;;;10.75;6.13;;;;;;;36.62;17.31;100112.25;5059779;28;20054;-74
2023/09/23 09:34:31;;;;;;;16.27;6.50;;;;;;;36.59;17.88;100123.06;5042380;28;20414;-74
2023/09/23 09:36:57;;;;;;;12.93;6.43;;;;;;;37.07;16.93;100114.44;5045358;28;20058;-74
2023/09/23 09:39:28;;;;;;;10.30;6.07;;;;;;;36.58;17.50;100133.34;5081082;28;20043;-77
2023/09/23 09:41:54;;;;;;;11.02;6.18;;;;;;;36.47;17.81;100120.50;5084470;28;20050;-76
2023/09/23 09:44:22;;;;;;;8.27;5.93;;;;;;;37.18;17.44;100118.13;5083470;28;20039;-76
2023/09/23 09:46:48;;;;;;;8.98;6.35;;;;;;;37.49;16.84;100138.50;5080724;28;20051;-76
2023/09/23 09:49:17;;;;;;;9.20;6.13;;;;;;;37.98;16.64;100136.13;5080182;28;20050;-76
2023/09/23 09:51:48;;;;;;;8.98;6.05;;;;;;;37.47;16.56;100124.06;5060988;28;20050;-75
2023/09/23 09:54:18;;;;;;;7.90;6.00;;;;;;;37.78;16.58;100131.38;5079822;28;20050;-77
2023/09/23 09:56:47;;;;;;;10.27;6.45;;;;;;;37.37;16.54;100116.50;5075697;28;20046;-75
2023/09/23 09:59:22;;;;;;;6.97;5.60;;;;;;;37.01;16.72;100126.69;5074960;28;20043;-75
2023/09/23 10:01:52;;;;;;;9.93;6.78;;;;;;;35.33;18.16;100134.69;5057418;28;20058;-75
2023/09/23 10:04:19;;;;;;;10.48;5.88;;;;;;;34.51;19.08;100118.06;5056838;28;20035;-73
2023/09/23 10:06:53;;;;;;;9.05;6.15;;;;;;;33.91;18.93;100118.72;5056660;28;20048;-73
2023/09/23 10:09:28;;;;;;;7.65;5.30;;;;;;;32.75;19.88;100118.06;5056183;28;20039;-72
2023/09/23 10:11:54;;;;;;;9.68;5.78;;;;;;;31.61;20.58;100113.81;5075465;28;20824;-76
2023/09/23 10:14:20;;;;;;;10.15;5.22;;;;;;;30.47;21.75;100117.38;5057835;28;20040;-74
2023/09/23 10:16:50;;;;;;;15.35;5.25;;;;;;;30.01;22.36;100127.94;5076184;28;20486;-74
2023/09/23 10:19:15;;;;;;;7.40;4.93;;;;;;;28.92;23.39;100125.34;5045864;28;20043;-75
2023/09/23 10:21:44;;;;;;;16.20;6.95;;;;;;;28.04;24.33;100152.25;5076240;28;20051;-74
2023/09/23 10:24:18;;;;;;;7.28;4.50;;;;;;;27.55;24.86;100141.59;5039863;28;20040;-74
2023/09/23 10:26:43;;;;;;;9.93;5.15;;;;;;;27.13;25.50;100132.66;5044132;28;20039;-73
2023/09/23 10:29:08;;;;;;;5.68;5.07;;;;;;;26.80;25.65;100143.41;5056608;28;20521;-74
2023/09/23 10:31:34;;;;;;;7.30;5.40;;;;;;;26.39;26.50;100135.19;5074881;28;20044;-73
2023/09/23 10:34:08;;;;;;;10.10;5.53;;;;;;;26.48;26.42;100122.19;5074791;28;20057;-75
2023/09/23 10:36:36;;;;;;;10.52;5.38;;;;;;;26.10;27.10;100146.25;5072863;28;20048;-74
2023/09/23 10:39:02;;;;;;;13.38;5.65;;;;;;;26.01;27.39;100112.78;5075219;28;20046;-73
2023/09/23 10:41:37;;;;;;;11.75;5.15;;;;;;;25.88;27.79;100138.09;5075227;28;20747;-73
2023/09/23 10:44:03;;;;;;;8.68;5.30;;;;;;;25.84;27.27;100125.03;5040456;28;20047;-74
2023/09/23 10:46:29;;;;;;;8.57;5.32;;;;;;;25.79;28.06;100135.69;5074575;28;20043;-75
2023/09/23 10:48:55;;;;;;;12.73;5.25;;;;;;;25.87;27.60;100114.53;5072249;28;20058;-74
2023/09/23 10:51:21;;;;;;;13.35;5.47;;;;;;;25.78;28.21;100139.47;5074562;28;20043;-74
2023/09/23 10:53:47;;;;;;;8.98;5.50;;;;;;;25.74;27.93;100127.22;5073994;28;20040;-75
2023/09/23 10:56:13;;;;;;;7.55;4.88;;;;;;;25.64;28.50;100128.41;5075225;28;20039;-76
2023/09/23 10:58:38;;;;;;;11.30;4.78;;;;;;;25.71;28.31;100119.44;5074403;28;20043;-73
2023/09/23 11:01:05;;;;;;;10.27;5.93;;;;;;;25.74;28.64;100141.72;5056340;28;20043;-77
2023/09/23 11:03:37;;;;;;;7.53;5.47;;;;;;;25.67;28.79;100122.56;5074939;28;20031;-75
2023/09/23 11:06:03;;;;;;;9.13;5.55;;;;;;;25.28;28.83;100124.88;5075608;28;20051;-77
2023/09/23 11:08:29;;;;;;;8.18;4.95;;;;;;;25.10;29.21;100118.97;5056677;28;20042;-77
2023/09/23 11:10:57;;;;;;;11.45;5.45;;;;;;;25.14;27.80;100112.94;5075104;28;20047;-74
2023/09/23 11:13:25;;;;;;;9.57;5.15;;;;;;;25.03;28.47;100116.16;5072880;28;20055;-75
2023/09/23 11:15:50;;;;;;;8.27;5.22;;;;;;;24.94;28.61;100106.41;5075444;28;20051;-76
2023/09/23 11:18:16;;;;;;;10.98;5.00;;;;;;;24.87;28.74;100121.78;5057277;28;20043;-77